Dobrodošli na spletni strani vremenske postaje Senovo. Vse informacije so informativnega značaja, saj vremenska postaja ni del državne mreže meteoroloških postaj. AKTUALNIH OBVESTIL NI.


Sneg/Led Od: 23-02-2018 00:00 Do: 23:59 Opozorilo za: Sneg/Led Stopnja: Rumena info button

Pogled proti Armezu več informacij Pogled proti Armezu


Lisca več informacij Lisca


Radar strel več informacij blitzortung!


opozorilo za sneg/led več informacij rain snow radar


Obiščite še:

Template documentation
and downloads

And another site



Weather Underground, zgodovina - Tekstovno

Dnevni povzetek za Januar 19, 2018 Enote:  Metrično    Angleško   Obe
« Predhodni Dan
Naslednji Dan »
Dnevni Tedenski Mesečni Letni Po meri
  Višja: Nižja: Povprečje:
Temperatura: -17.8 °C -16.4 °C -15 °C
Točka rosišča: -17.8 °C -18.1 °C -16.6 °C
Vlažnost: Humidity % 59 % 82 %
Hitrost vetra: 0 km/h 0 km/h 3.5 km/h
Sunki vetra: 0 km/h - -
Veter:- - SW
Zračni tlak: 0 hPa 33958.2 hPa -
Padavine: 355.6 mm    
Historical Graphs
 
 
Tabelarni podarki za Januar 19, 2018
Čas Temperatura Točka rosišča Zračni tlak Veter Hitrost vetra Sunki vetra Vlažnost Intenziteta padavin (urna)
-17.8 °C -17.8 °C 0 hPa Calm     Humidity % 0 mm
00:04 -13.9 °C -17.8 °C 33992.1 hPa SW 11.6 km/h 20.3 km/h 61 % 0 mm
00:09 -13.9 °C -17.8 °C 33992.1 hPa SSW 11.6 km/h 19.6 km/h 61 % 0 mm
00:14 -14 °C -17.9 °C 33992.1 hPa SSW 11.1 km/h 18.7 km/h 61 % 0 mm
00:19 -14 °C -17.9 °C 33992.1 hPa South 10.1 km/h 20.3 km/h 61 % 0 mm
00:24 -14.1 °C -17.9 °C 33992.1 hPa SSW 10.9 km/h 20.3 km/h 61 % 0 mm
00:29 -14.1 °C -17.9 °C 34029.3 hPa SW 9.8 km/h 19.2 km/h 61 % 0 mm
00:34 -14.2 °C -18.1 °C 34029.3 hPa SW 5.5 km/h 11.1 km/h 61 % 0 mm
00:39 -14.2 °C -18.1 °C 34029.3 hPa NE 3.1 km/h 8 km/h 61 % 0 mm
00:44 -14.2 °C -18.1 °C 34029.3 hPa West 4.2 km/h 14.5 km/h 61 % 0 mm
00:49 -14.2 °C -18.1 °C 34029.3 hPa West 6.4 km/h 15 km/h 61 % 0 mm
00:54 -14.1 °C -17.8 °C 34029.3 hPa West 8.2 km/h 15 km/h 62 % 0 mm
00:59 -14 °C -17.8 °C 34029.3 hPa West 6.8 km/h 14.5 km/h 62 % 0 mm
01:04 -13.9 °C -17.7 °C 34029.3 hPa WSW 6 km/h 15.6 km/h 62 % 0 mm
01:09 -13.8 °C -17.6 °C 34029.3 hPa WSW 8.2 km/h 19.6 km/h 62 % 0 mm
01:14 -13.7 °C -17.5 °C 33992.1 hPa West 9 km/h 19.6 km/h 62 % 0 mm
01:19 -13.7 °C -17.4 °C 33992.1 hPa WSW 8.9 km/h 16.9 km/h 62 % 0 mm
01:24 -13.7 °C -17.6 °C 33992.1 hPa WSW 9 km/h 22.5 km/h 61 % 0 mm
01:29 -13.6 °C -17.6 °C 33992.1 hPa WSW 8.5 km/h 22.5 km/h 61 % 0 mm
01:34 -13.6 °C -17.4 °C 33992.1 hPa WSW 9 km/h 20.9 km/h 61 % 0 mm
01:39 -13.6 °C -17.4 °C 33992.1 hPa SW 10.1 km/h 20.9 km/h 61 % 0 mm
01:44 -13.5 °C -17.4 °C 33992.1 hPa SW 10.9 km/h 24.8 km/h 61 % 0 mm
01:49 -13.4 °C -17.4 °C 33992.1 hPa WSW 10.6 km/h 24.8 km/h 61 % 0 mm
01:54 -13.4 °C -17.4 °C 33992.1 hPa WSW 8.5 km/h 18.7 km/h 61 % 0 mm
01:59 -13.4 °C -17.4 °C 33958.2 hPa West 8.2 km/h 18.7 km/h 60 % 0 mm
02:04 -13.4 °C -17.4 °C 33958.2 hPa WSW 9.7 km/h 18.7 km/h 60 % 0 mm
02:09 -13.3 °C -17.4 °C 33958.2 hPa SW 8.9 km/h 18.7 km/h 60 % 0 mm
02:14 -13.2 °C -17.3 °C 33992.1 hPa SW 8 km/h 15 km/h 60 % 0 mm
02:19 -13.2 °C -17.3 °C 33992.1 hPa SW 7.7 km/h 15 km/h 60 % 0 mm
02:24 -13.2 °C -17.3 °C 33992.1 hPa SSW 7.7 km/h 12.2 km/h 60 % 0 mm
02:29 -13.3 °C -17.4 °C 33992.1 hPa SSW 7.7 km/h 19.2 km/h 59 % 0 mm
02:34 -13.3 °C -17.4 °C 33992.1 hPa SSW 5.6 km/h 19.2 km/h 59 % 0 mm
02:39 -13.3 °C -17.6 °C 33992.1 hPa SSW 4.3 km/h 9.8 km/h 59 % 0 mm
02:44 -13.4 °C -17.4 °C 33992.1 hPa South 2.9 km/h 8.9 km/h 60 % 0 mm
02:49 -13.4 °C -17.5 °C 33992.1 hPa SSW 3.9 km/h 12.2 km/h 60 % 0 mm
02:54 -13.4 °C -17.5 °C 33992.1 hPa SSW 6.3 km/h 12.2 km/h 60 % 0 mm
02:59 -13.5 °C -17.6 °C 33992.1 hPa South 6.4 km/h 9.8 km/h 60 % 0 mm
03:04 -13.5 °C -17.6 °C 33992.1 hPa South 6.3 km/h 9.8 km/h 60 % 0 mm
03:09 -13.6 °C -17.6 °C 33992.1 hPa South 4.3 km/h 9.3 km/h 60 % 0 mm
03:14 -13.6 °C -17.6 °C 33992.1 hPa SSW 3.1 km/h 9.3 km/h 60 % 0 mm
03:19 -13.7 °C -17.7 °C 33992.1 hPa WSW 1.6 km/h 6.4 km/h 60 % 0 mm
03:24 -13.8 °C -17.8 °C 33992.1 hPa NW 0.8 km/h 6.4 km/h 60 % 0 mm
03:29 -13.9 °C -17.8 °C 33992.1 hPa WNW 1.8 km/h 7.6 km/h 61 % 0 mm
03:34 -14.1 °C -17.9 °C 33992.1 hPa WNW 2.1 km/h 8 km/h 61 % 0 mm
03:39 -14.1 °C -17.9 °C 33992.1 hPa NW 1.6 km/h 8 km/h 61 % 0 mm
03:44 -14.2 °C -17.9 °C 33958.2 hPa NW 0.8 km/h 4.2 km/h 62 % 0 mm
03:49 -14.3 °C -18 °C 33958.2 hPa Calm     62 % 0 mm
03:54 -14.3 °C -17.9 °C 33958.2 hPa Calm     63 % 0 mm
03:59 -14.4 °C -18 °C 33958.2 hPa Calm     63 % 0 mm
04:04 -14.4 °C -17.9 °C 33958.2 hPa Calm     64 % 0 mm
04:09 -14.6 °C -17.9 °C 33958.2 hPa Calm     65 % 0 mm
04:14 -14.6 °C -18 °C 33992.1 hPa NNW 0.5 km/h 6.4 km/h 65 % 0 mm
04:19 -14.6 °C -17.9 °C 33992.1 hPa NW 1.6 km/h 6.9 km/h 66 % 0 mm
04:24 -14.7 °C -17.8 °C 33992.1 hPa NW 1 km/h 6.9 km/h 67 % 0 mm
04:29 -14.7 °C -17.8 °C 33992.1 hPa Calm     67 % 0 mm
04:34 -14.7 °C -17.7 °C 33992.1 hPa Calm     68 % 0 mm
04:39 -14.7 °C -17.7 °C 33992.1 hPa Calm   4.2 km/h 68 % 0 mm
04:44 -14.7 °C -17.6 °C 33992.1 hPa Calm   4.2 km/h 69 % 0 mm
04:49 -14.7 °C -17.6 °C 33992.1 hPa NW 2.3 km/h 7.6 km/h 69 % 0 mm
04:54 -14.7 °C -17.6 °C 33992.1 hPa NW 4.2 km/h 7.6 km/h 69 % 0 mm
04:59 -14.8 °C -17.6 °C 34029.3 hPa NW 1.8 km/h 7.6 km/h 70 % 0 mm
05:04 -14.8 °C -17.6 °C 34029.3 hPa Calm     70 % 0 mm
05:09 -14.8 °C -17.4 °C 34029.3 hPa Calm     71 % 0 mm
05:14 -14.8 °C -17.4 °C 34029.3 hPa Calm     71 % 0 mm
05:19 -14.8 °C -17.6 °C 34029.3 hPa Calm     71 % 0 mm
05:24 -14.8 °C -17.4 °C 34029.3 hPa Calm     72 % 0 mm
05:29 -14.8 °C -17.4 °C 34029.3 hPa WNW 0.8 km/h 5.6 km/h 72 % 0 mm
05:34 -14.8 °C -17.3 °C 34029.3 hPa NW 1.3 km/h 5.6 km/h 73 % 0 mm
05:39 -14.9 °C -17.3 °C 34029.3 hPa NNE 0.5 km/h 5.1 km/h 73 % 0 mm
05:44 -14.9 °C -17.3 °C 34029.3 hPa Calm     73 % 0 mm
05:49 -14.9 °C -17.3 °C 34029.3 hPa Calm     74 % 0 mm
05:54 -14.9 °C -17.3 °C 34029.3 hPa Calm     74 % 0 mm
05:59 -14.9 °C -17.3 °C 34029.3 hPa Calm     74 % 0 mm
06:04 -14.9 °C -17.2 °C 34029.3 hPa Calm     75 % 0 mm
06:09 -14.9 °C -17.2 °C 34029.3 hPa Calm     75 % 0 mm
06:14 -14.9 °C -17.2 °C 33992.1 hPa Calm     75 % 0 mm
06:19 -14.9 °C -17.1 °C 33992.1 hPa Calm     76 % 0 mm
06:24 -14.9 °C -17.1 °C 33992.1 hPa Calm     76 % 0 mm
06:29 -14.9 °C -17.1 °C 33992.1 hPa Calm     76 % 0 mm
06:34 -14.9 °C -17 °C 33992.1 hPa Calm     77 % 0 mm
06:39 -14.9 °C -17 °C 33992.1 hPa Calm     77 % 0 mm
06:44 -14.9 °C -17 °C 34029.3 hPa Calm     77 % 7.62 mm
06:49 -14.9 °C -17 °C 34029.3 hPa West 1 km/h 6.4 km/h 77 % 7.62 mm
06:54 -14.9 °C -16.9 °C 34029.3 hPa WSW 2.1 km/h 6.4 km/h 78 % 7.62 mm
06:59 -14.9 °C -16.9 °C 33992.1 hPa SW 1 km/h 5.6 km/h 78 % 7.62 mm
07:04 -14.9 °C -16.8 °C 33992.1 hPa Calm     79 % 7.62 mm
07:10 -14.9 °C -16.8 °C 33992.1 hPa NW 0.5 km/h 6.4 km/h 79 % 7.62 mm
07:14 -14.9 °C -16.7 °C 33992.1 hPa NW 0.5 km/h 6.4 km/h 80 % 7.62 mm
07:20 -14.9 °C -16.7 °C 33992.1 hPa Calm     80 % 7.62 mm
07:25 -14.9 °C -16.7 °C 33992.1 hPa Calm     80 % 7.62 mm
07:30 -14.9 °C -16.6 °C 33992.1 hPa Calm     81 % 7.62 mm
07:35 -14.9 °C -16.6 °C 33992.1 hPa Calm     81 % 7.62 mm
07:40 -14.9 °C -16.6 °C 33992.1 hPa Calm     81 % 12.7 mm
07:45 -14.9 °C -16.5 °C 34029.3 hPa Calm     82 % 7.62 mm
07:50 -14.9 °C -16.5 °C 34029.3 hPa Calm     82 % 7.62 mm
07:55 -14.9 °C -16.5 °C 34029.3 hPa West 2.3 km/h 7.6 km/h 82 % 12.7 mm
08:00 -14.9 °C -16.3 °C 34029.3 hPa WNW 4.3 km/h 7.6 km/h 83 % 12.7 mm
08:05 -14.9 °C -16.3 °C 34029.3 hPa NW 2.9 km/h 7.6 km/h 83 % 12.7 mm
08:10 -14.8 °C -16.2 °C 34029.3 hPa NW 0.8 km/h 6.9 km/h 84 % 20.32 mm
08:15 -14.8 °C -16.2 °C 34029.3 hPa Calm     84 % 20.32 mm
08:20 -14.8 °C -16.2 °C 34029.3 hPa Calm     84 % 20.32 mm
08:25 -14.8 °C -16.1 °C 34029.3 hPa Calm     85 % 25.4 mm
08:30 -14.8 °C -16.1 °C 34063.2 hPa Calm     85 % 25.4 mm
08:35 -14.8 °C -16.1 °C 34063.2 hPa Calm     85 % 25.4 mm
08:40 -14.8 °C -16.1 °C 34063.2 hPa Calm     85 % 25.4 mm
08:45 -14.8 °C -16 °C 34063.2 hPa Calm     86 % 25.4 mm
08:50 -14.7 °C -15.9 °C 34063.2 hPa Calm     86 % 25.4 mm
08:55 -14.7 °C -15.9 °C 34063.2 hPa Calm     86 % 25.4 mm
09:00 -14.7 °C -15.9 °C 34063.2 hPa Calm   2.3 km/h 86 % 25.4 mm
09:05 -14.7 °C -15.8 °C 34063.2 hPa Calm   2.3 km/h 87 % 25.4 mm
09:10 -14.7 °C -15.8 °C 34063.2 hPa Calm     87 % 20.32 mm
09:15 -14.6 °C -15.7 °C 34063.2 hPa Calm     87 % 20.32 mm
09:20 -14.6 °C -15.7 °C 34063.2 hPa Calm     87 % 20.32 mm
09:25 -14.6 °C -15.7 °C 34063.2 hPa Calm     87 % 12.7 mm
09:30 -14.5 °C -15.5 °C 34063.2 hPa Calm     88 % 12.7 mm
09:35 -14.4 °C -15.6 °C 34063.2 hPa Calm     87 % 20.32 mm
09:40 -14.4 °C -15.4 °C 34063.2 hPa Calm     88 % 20.32 mm
09:45 -14.3 °C -15.3 °C 34029.3 hPa Calm     88 % 20.32 mm
09:50 -14.2 °C -15.2 °C 34029.3 hPa Calm     88 % 20.32 mm
09:55 -14.2 °C -15.1 °C 34029.3 hPa Calm     89 % 20.32 mm
10:00 -14.2 °C -15.1 °C 34063.2 hPa Calm     89 % 20.32 mm
10:05 -14.1 °C -15.1 °C 34063.2 hPa Calm     89 % 12.7 mm
10:10 -14 °C -14.8 °C 34063.2 hPa Calm     90 % 12.7 mm
10:15 -13.9 °C -14.8 °C 34063.2 hPa Calm     90 % 7.62 mm
10:20 -13.9 °C -14.8 °C 34063.2 hPa Calm     90 % 7.62 mm
10:25 -13.8 °C -14.7 °C 34063.2 hPa Calm     90 % 12.7 mm
10:31 -13.8 °C -14.7 °C 34097 hPa Calm     90 % 7.62 mm
10:36 -13.8 °C -14.6 °C 34097 hPa Calm     90 % 7.62 mm
10:41 -13.8 °C -14.6 °C 34097 hPa Calm     91 % 7.62 mm
10:46 -13.7 °C -14.5 °C 34097 hPa Calm     91 % 7.62 mm
10:51 -13.7 °C -14.5 °C 34097 hPa Calm     91 % 7.62 mm
10:56 -13.7 °C -14.4 °C 34097 hPa Calm     91 % 7.62 mm
11:01 -13.7 °C -14.4 °C 34097 hPa Calm     91 % 12.7 mm
11:06 -13.7 °C -14.4 °C 34097 hPa Calm     91 % 12.7 mm
11:11 -13.7 °C -14.4 °C 34097 hPa Calm     91 % 12.7 mm
11:16 -13.7 °C -14.4 °C 34097 hPa Calm     91 % 12.7 mm
11:21 -13.6 °C -14.4 °C 34097 hPa Calm     91 % 20.32 mm
11:26 -13.6 °C -14.4 °C 34097 hPa Calm     91 % 20.32 mm
11:31 -13.6 °C -14.4 °C 34063.2 hPa Calm     91 % 20.32 mm
11:36 -13.6 °C -14.3 °C 34063.2 hPa Calm     92 % 20.32 mm
11:41 -13.6 °C -14.3 °C 34063.2 hPa Calm   3.4 km/h 92 % 20.32 mm
11:46 -13.6 °C -14.3 °C 34063.2 hPa Calm   3.4 km/h 92 % 20.32 mm
11:51 -13.6 °C -14.3 °C 34063.2 hPa Calm     92 % 25.4 mm
11:56 -13.7 °C -14.3 °C 34063.2 hPa Calm     92 % 25.4 mm
12:01 -13.7 °C -14.3 °C 34097 hPa Calm     92 % 25.4 mm
12:06 -13.7 °C -14.3 °C 34097 hPa Calm     92 % 25.4 mm
12:11 -13.6 °C -14.3 °C 34097 hPa Calm     92 % 25.4 mm
12:16 -13.6 °C -14.3 °C 34097 hPa Calm     92 % 33.02 mm
12:21 -13.6 °C -14.3 °C 34097 hPa Calm     92 % 33.02 mm
12:26 -13.7 °C -14.3 °C 34097 hPa Calm     92 % 33.02 mm
12:31 -13.6 °C -14.3 °C 34097 hPa Calm     92 % 38.1 mm
12:36 -13.7 °C -14.3 °C 34097 hPa Calm     92 % 45.72 mm
12:41 -13.7 °C -14.3 °C 34097 hPa Calm     92 % 45.72 mm
12:46 -13.6 °C -14.3 °C 34097 hPa Calm     92 % 45.72 mm
12:51 -13.6 °C -14.3 °C 34097 hPa Calm     92 % 45.72 mm
12:56 -13.6 °C -14.3 °C 34097 hPa SW 0.5 km/h 4.2 km/h 92 % 50.8 mm
13:01 -13.6 °C -14.3 °C 34097 hPa SSW 1.3 km/h 6.9 km/h 92 % 50.8 mm
13:06 -13.6 °C -14.3 °C 34097 hPa South 0.5 km/h 6.9 km/h 92 % 50.8 mm
13:11 -13.6 °C -14.3 °C 34097 hPa Calm     92 % 45.72 mm
13:16 -13.6 °C -14.2 °C 34097 hPa West 1.6 km/h 10.3 km/h 93 % 45.72 mm
13:21 -13.6 °C -14.3 °C 34097 hPa West 4.2 km/h 12.2 km/h 92 % 45.72 mm
13:26 -13.7 °C -14.3 °C 34063.2 hPa SSW 5.1 km/h 16.3 km/h 92 % 50.8 mm
13:31 -13.7 °C -14.4 °C 34063.2 hPa ESE 9.3 km/h 27.2 km/h 92 % 45.72 mm
13:36 -13.9 °C -14.6 °C 34063.2 hPa East 11.9 km/h 27.2 km/h 92 % 45.72 mm
13:41 -14 °C -14.7 °C 34097 hPa East 8.9 km/h 16.9 km/h 92 % 45.72 mm
13:46 -14.1 °C -14.7 °C 34097 hPa SE 7.6 km/h 12.7 km/h 92 % 45.72 mm
13:51 -14.3 °C -15.1 °C 34097 hPa East 10.3 km/h 26.2 km/h 91 % 45.72 mm
13:56 -14.4 °C -15.2 °C 34097 hPa East 14.2 km/h 42.2 km/h 91 % 58.42 mm
14:01 -14.6 °C -15.4 °C 34097 hPa ENE 14.8 km/h 42.2 km/h 90 % 58.42 mm
14:06 -14.7 °C -15.5 °C 34097 hPa NNE 9.8 km/h 24.8 km/h 90 % 58.42 mm
14:11 -14.8 °C -15.8 °C 34130.9 hPa WNW 5.5 km/h 19.2 km/h 89 % 63.5 mm
14:16 -14.9 °C -15.9 °C 34130.9 hPa WNW 3.9 km/h 9.3 km/h 89 % 71.12 mm
14:21 -15 °C -16 °C 34130.9 hPa ENE 3.7 km/h 9.3 km/h 88 % 76.2 mm
14:26 -15.1 °C -16.1 °C 34164.7 hPa ESE 4.7 km/h 20.9 km/h 88 % 76.2 mm
14:31 -15.2 °C -16.2 °C 34164.7 hPa ESE 10.1 km/h 20.9 km/h 88 % 91.44 mm
14:36 -15.2 °C -16.2 °C 34164.7 hPa ESE 14 km/h 20.9 km/h 88 % 96.52 mm
14:41 -15.3 °C -16.3 °C 34164.7 hPa ESE 12.7 km/h 20.9 km/h 88 % 96.52 mm
14:46 -15.3 °C -16.3 °C 34164.7 hPa ESE 11.9 km/h 20.3 km/h 88 % 96.52 mm
14:51 -15.3 °C -16.3 °C 34164.7 hPa ESE 11.9 km/h 20.3 km/h 88 % 91.44 mm
14:56 -15.4 °C -16.5 °C 34164.7 hPa SE 12.7 km/h 19.2 km/h 87 % 91.44 mm
15:01 -15.4 °C -16.5 °C 34164.7 hPa ESE 11.1 km/h 19.2 km/h 87 % 91.44 mm
15:06 -15.4 °C -16.6 °C 34164.7 hPa ESE 8.2 km/h 12.7 km/h 87 % 91.44 mm
15:11 -15.5 °C -16.6 °C 34164.7 hPa SE 9.3 km/h 17.4 km/h 87 % 83.82 mm
15:16 -15.6 °C -16.6 °C 34164.7 hPa SE 11.1 km/h 22 km/h 87 % 83.82 mm
15:21 -15.6 °C -16.6 °C 34164.7 hPa ESE 12.2 km/h 22 km/h 88 % 76.2 mm
15:26 -15.7 °C -16.8 °C 34130.9 hPa ESE 11.6 km/h 19.6 km/h 87 % 71.12 mm
15:31 -15.7 °C -16.8 °C 34130.9 hPa SE 9.8 km/h 19.6 km/h 87 % 58.42 mm
15:36 -15.7 °C -16.8 °C 34130.9 hPa SSE 10.9 km/h 26.2 km/h 87 % 58.42 mm
15:41 -15.8 °C -16.9 °C 34164.7 hPa South 12.9 km/h 26.2 km/h 87 % 58.42 mm
15:46 -15.8 °C -16.9 °C 34164.7 hPa South 13.2 km/h 22 km/h 87 % 50.8 mm
15:51 -15.9 °C -17 °C 34164.7 hPa South 13.5 km/h 22 km/h 87 % 50.8 mm
15:56 -15.9 °C -17 °C 34164.7 hPa SSE 13.2 km/h 25.4 km/h 87 % 45.72 mm
16:01 -15.9 °C -17.1 °C 34164.7 hPa South 14.5 km/h 25.4 km/h 87 % 45.72 mm
16:06 -15.9 °C -17.1 °C 34164.7 hPa South 15.6 km/h 22 km/h 87 % 38.1 mm
16:11 -15.9 °C -17.1 °C 34164.7 hPa South 13.7 km/h 25.4 km/h 87 % 38.1 mm
16:16 -15.9 °C -17.1 °C 34164.7 hPa SE 9 km/h 25.4 km/h 87 % 38.1 mm
16:21 -15.9 °C -16.9 °C 34164.7 hPa SSE 9.7 km/h 24.8 km/h 88 % 33.02 mm
16:26 -15.9 °C -16.9 °C 34164.7 hPa SSE 12.7 km/h 24.8 km/h 88 % 38.1 mm
16:31 -16 °C -17 °C 34164.7 hPa SE 12.7 km/h 20.9 km/h 88 % 33.02 mm
16:36 -16 °C -17 °C 34164.7 hPa SSE 12.7 km/h 20.9 km/h 88 % 25.4 mm
16:41 -16.1 °C -17.1 °C 34198.6 hPa South 11.1 km/h 18.7 km/h 88 % 25.4 mm
16:46 -16.1 °C -17.1 °C 34198.6 hPa SE 9 km/h 18.7 km/h 88 % 25.4 mm
16:51 -16.1 °C -17.1 °C 34198.6 hPa SSE 8 km/h 16.3 km/h 88 % 20.32 mm
16:56 -16.1 °C -17.1 °C 34198.6 hPa South 7.2 km/h 16.3 km/h 88 % 20.32 mm
17:01 -16.1 °C -17.1 °C 34198.6 hPa South 5.6 km/h 12.2 km/h 88 % 12.7 mm
17:06 -16.1 °C -17.1 °C 34198.6 hPa SSW 6.9 km/h 12.7 km/h 88 % 12.7 mm
17:11 -16.1 °C -17.1 °C 34235.8 hPa SW 8.2 km/h 12.7 km/h 88 % 7.62 mm
17:16 -16.2 °C -17.2 °C 34235.8 hPa WSW 5.1 km/h 11.1 km/h 88 % 7.62 mm
17:21 -16.2 °C -17.2 °C 34235.8 hPa SSW 1 km/h 5.1 km/h 88 % 12.7 mm
17:26 -16.2 °C -17.1 °C 34235.8 hPa WSW 1.6 km/h 7.6 km/h 89 % 7.62 mm
17:31 -16.2 °C -17.1 °C 34235.8 hPa WSW 2.3 km/h 7.6 km/h 89 % 7.62 mm
17:36 -16.2 °C -17.1 °C 34235.8 hPa SSW 3.1 km/h 9.3 km/h 89 % 7.62 mm
17:41 -16.2 °C -17.1 °C 34235.8 hPa SW 4.3 km/h 9.3 km/h 89 % 7.62 mm
17:46 -16.2 °C -17.1 °C 34235.8 hPa NW 5.1 km/h 14 km/h 89 % 7.62 mm
17:51 -16.2 °C -17.1 °C 34235.8 hPa NW 4.2 km/h 14 km/h 89 % 7.62 mm
17:56 -16.2 °C -17.1 °C 34235.8 hPa WSW 0.5 km/h 5.1 km/h 89 % 7.62 mm
18:01 -16.2 °C -17.1 °C 34235.8 hPa West 1.6 km/h 8 km/h 89 % 7.62 mm
18:06 -16.3 °C -17.2 °C 34235.8 hPa West 5 km/h 10.3 km/h 89 % 7.62 mm
18:12 -16.3 °C -17.2 °C 34235.8 hPa West 4.3 km/h 10.3 km/h 89 % 7.62 mm
18:17 -16.3 °C -17.2 °C 34235.8 hPa WSW 3.7 km/h 8.9 km/h 89 % 7.62 mm
18:22 -16.3 °C -17.2 °C 34235.8 hPa West 3.9 km/h 8.9 km/h 89 % 0 mm
18:27 -16.2 °C -17.1 °C 34235.8 hPa NE 1.8 km/h 7.6 km/h 90 % 0 mm
18:32 -16.2 °C -17.1 °C 34235.8 hPa SE 4.2 km/h 9.3 km/h 90 % 0 mm
18:37 -16.2 °C -17.1 °C 34235.8 hPa ESE 5 km/h 9.3 km/h 90 % 0 mm
18:42 -16.2 °C -17.1 °C 34269.7 hPa NNW 3.4 km/h 7.6 km/h 90 % 0 mm
18:47 -16.2 °C -17.1 °C 34269.7 hPa NW 3.7 km/h 6.9 km/h 90 % 0 mm
18:52 -16.2 °C -17.1 °C 34269.7 hPa NW 5.5 km/h 11.1 km/h 90 % 0 mm
18:57 -16.2 °C -16.9 °C 34235.8 hPa NW 5.1 km/h 11.1 km/h 91 % 0 mm
19:02 -16.2 °C -16.9 °C 34235.8 hPa NW 3.4 km/h 11.1 km/h 91 % 0 mm
19:07 -16.2 °C -16.9 °C 34235.8 hPa WNW 4.2 km/h 11.1 km/h 91 % 0 mm
19:12 -16.2 °C -16.9 °C 34269.7 hPa WSW 3.7 km/h 8 km/h 91 % 0 mm
19:17 -16.2 °C -16.9 °C 34269.7 hPa SW 1.8 km/h 6.9 km/h 91 % 0 mm
19:22 -16.2 °C -16.9 °C 34269.7 hPa South 0.8 km/h 5.1 km/h 91 % 0 mm
19:27 -16.2 °C -16.9 °C 34235.8 hPa Calm     91 % 0 mm
19:32 -16.2 °C -16.9 °C 34235.8 hPa Calm     91 % 0 mm
19:37 -16.2 °C -16.9 °C 34235.8 hPa Calm     92 % 0 mm
19:42 -16.2 °C -16.9 °C 34235.8 hPa Calm     92 % 0 mm
19:47 -16.2 °C -16.9 °C 34235.8 hPa Calm     92 % 0 mm
19:52 -16.2 °C -16.9 °C 34235.8 hPa West 2.1 km/h 10.3 km/h 92 % 0 mm
19:57 -16.2 °C -16.9 °C 34269.7 hPa West 4.2 km/h 10.3 km/h 92 % 0 mm
20:02 -16.2 °C -16.9 °C 34269.7 hPa WNW 3.9 km/h 9.3 km/h 92 % 0 mm
20:07 -16.3 °C -16.9 °C 34269.7 hPa West 3.9 km/h 8.9 km/h 92 % 0 mm
20:12 -16.3 °C -16.9 °C 34235.8 hPa SW 2.3 km/h 6.4 km/h 92 % 0 mm
20:17 -16.3 °C -16.9 °C 34235.8 hPa SW 1.3 km/h 6.4 km/h 92 % 0 mm
20:22 -16.3 °C -16.9 °C 34235.8 hPa WSW 3.1 km/h 7.6 km/h 92 % 0 mm
20:27 -16.3 °C -16.9 °C 34269.7 hPa SW 6.4 km/h 11.1 km/h 92 % 0 mm
20:32 -16.3 °C -16.9 °C 34269.7 hPa SSE 7.6 km/h 12.2 km/h 92 % 0 mm
20:37 -16.3 °C -16.9 °C 34269.7 hPa SE 6.4 km/h 12.2 km/h 92 % 0 mm
20:42 -16.3 °C -16.9 °C 34269.7 hPa SE 3.9 km/h 9.8 km/h 92 % 0 mm
20:47 -16.3 °C -16.9 °C 34269.7 hPa WNW 3.7 km/h 9.3 km/h 93 % 0 mm
20:52 -16.3 °C -16.9 °C 34269.7 hPa West 3.4 km/h 9.3 km/h 93 % 0 mm
20:57 -16.3 °C -16.9 °C 34269.7 hPa WSW 1.3 km/h 5.6 km/h 93 % 0 mm
21:02 -16.3 °C -16.9 °C 34269.7 hPa SSW 0.3 km/h 5.1 km/h 93 % 0 mm
21:07 -16.4 °C -16.9 °C 34269.7 hPa SW 2.1 km/h 8 km/h 93 % 0 mm
21:12 -16.4 °C -16.9 °C 34269.7 hPa SW 2.6 km/h 8 km/h 93 % 0 mm
21:17 -16.4 °C -16.9 °C 34269.7 hPa SSW 2.9 km/h 9.8 km/h 93 % 0 mm
21:22 -16.4 °C -16.9 °C 34269.7 hPa SSW 3.1 km/h 9.8 km/h 93 % 0 mm
21:27 -16.4 °C -16.9 °C 34303.6 hPa WSW 1.3 km/h 6.9 km/h 93 % 0 mm
21:32 -16.4 °C -16.9 °C 34303.6 hPa SSE 1.8 km/h 8 km/h 93 % 0 mm
21:37 -16.3 °C -16.9 °C 34303.6 hPa ESE 2.1 km/h 8 km/h 93 % 0 mm
21:42 -16.3 °C -16.9 °C 34303.6 hPa ESE 1.3 km/h 6.4 km/h 93 % 0 mm
21:47 -16.3 °C -16.9 °C 34303.6 hPa WNW 1 km/h 5.6 km/h 93 % 0 mm
21:52 -16.3 °C -16.9 °C 34303.6 hPa NW 1.3 km/h 5.6 km/h 93 % 0 mm
21:57 -16.3 °C -16.9 °C 34303.6 hPa WNW 2.1 km/h 9.3 km/h 93 % 0 mm
22:02 -16.3 °C -16.8 °C 34303.6 hPa West 1.8 km/h 9.3 km/h 93 % 0 mm
22:07 -16.3 °C -16.8 °C 34303.6 hPa WSW 1 km/h 5.1 km/h 94 % 0 mm
22:12 -16.3 °C -16.8 °C 34337.4 hPa WSW 1.3 km/h 5.1 km/h 94 % 0 mm
22:17 -16.3 °C -16.8 °C 34337.4 hPa West 0.5 km/h 3.4 km/h 94 % 0 mm
22:23 -16.3 °C -16.8 °C 34337.4 hPa SW 0.3 km/h 4.2 km/h 94 % 0 mm
22:28 -16.3 °C -16.8 °C 34303.6 hPa SW 0.3 km/h 4.2 km/h 94 % 0 mm
22:33 -16.3 °C -16.8 °C 34303.6 hPa Calm     94 % 0 mm
22:38 -16.3 °C -16.8 °C 34303.6 hPa Calm     94 % 0 mm
22:43 -16.3 °C -16.8 °C 34337.4 hPa Calm     94 % 0 mm
22:48 -16.3 °C -16.8 °C 34337.4 hPa Calm     94 % 0 mm
22:53 -16.3 °C -16.8 °C 34337.4 hPa Calm     94 % 0 mm
22:58 -16.3 °C -16.8 °C 34303.6 hPa Calm     94 % 0 mm
23:03 -16.3 °C -16.8 °C 34303.6 hPa Calm     94 % 0 mm
23:08 -16.3 °C -16.8 °C 34303.6 hPa SSW 1.6 km/h 7.6 km/h 94 % 0 mm
23:13 -16.3 °C -16.8 °C 34269.7 hPa SSW 3.4 km/h 7.6 km/h 94 % 0 mm
23:18 -16.3 °C -16.8 °C 34269.7 hPa South 2.3 km/h 7.6 km/h 94 % 0 mm
23:23 -16.3 °C -16.8 °C 34269.7 hPa SSE 1 km/h 5.6 km/h 94 % 0 mm
23:28 -16.3 °C -16.8 °C 34303.6 hPa South 1.6 km/h 6.4 km/h 94 % 0 mm
23:33 -16.3 °C -16.8 °C 34303.6 hPa SSW 2.9 km/h 6.9 km/h 94 % 0 mm
23:38 -16.3 °C -16.8 °C 34303.6 hPa South 3.1 km/h 9.8 km/h 94 % 0 mm
23:43 -16.3 °C -16.8 °C 34303.6 hPa SSW 2.9 km/h 9.8 km/h 94 % 0 mm
23:48 -16.3 °C -16.8 °C 34303.6 hPa SW 4.3 km/h 11.1 km/h 94 % 0 mm
23:53 -16.3 °C -16.8 °C 34303.6 hPa WSW 7.2 km/h 11.1 km/h 94 % 0 mm
23:58 -16.3 °C -16.8 °C 34303.6 hPa WSW 8 km/h 11.1 km/h 94 % 0 mm
Vremenska postaja Senovo
Podatki zbrani iz Weather Underground - 3 mb

Script developed by  Jim McMurry - jmcmurry@mwt.net Adapted for the template by  Wim van der Kuil - Leuven-Template.eu

Vremenski podatki so objavljeni na:

European Weather Network

WeatherCloud

Weather Underground

AWEKAS

HAMweather, WeatherForYou, PWS Weather

MapView

Geostik

Slovenia weather network

Oprema, ki se uporablja:

Vremenski program
Cumulus

Vremenski server
Asus

Cumulus

Asus